Wan Hai 508 — 9VJJ6 — position and weather

sailwx.info

Track history (hours):
 
Tides and Currents Weather Stations Pressure Air Temp Water Temp Dewpoint Dewpoint Depression Visibility Wind Speed Wind Dir Waves Ship Positions

Wan Hai 508

Last reported at 2015-Mar-27 01:30 UTC. Time now 2015-Mar-27 19:12 UTC.
Position N 01°57' E 102°18'.

Length 269 m; draft 9.7 m.

Type: Cargo ship. MMSI: 565567000.

Date/timePositionNaut miles runAvg speedWind from/ knotsBaromVisibWave heightAir tempDewpointWater temp
2015-Mar-27 01:30N 01°57' E 102°18'1920.7
2015-Mar-27 00:34N 01°49' E 102°35'2321.2
2015-Mar-26 23:30N 01°39' E 102°56'55 4.6
2015-Mar-26 11:21N 01°17' E 103°46'0 0.0
2015-Mar-26 10:27N 01°17' E 103°46'0 0.0
2015-Mar-26 09:33N 01°17' E 103°46'2 1.9
2015-Mar-26 08:34N 01°17' E 103°44'8 8.4
2015-Mar-26 07:33N 01°13' E 103°52'3 3.1
2015-Mar-26 06:33N 01°16' E 103°50'0 0.0
2015-Mar-26 05:32N 01°16' E 103°50'0 0.0
2015-Mar-26 04:23N 01°16' E 103°50'0 0.0
2015-Mar-26 03:26N 01°16' E 103°50'0 0.0
2015-Mar-26 02:32N 01°16' E 103°50'0 0.0
2015-Mar-26 01:32N 01°16' E 103°50'0 0.0
2015-Mar-26 00:32N 01°16' E 103°50'0 0.0
2015-Mar-25 23:32N 01°16' E 103°50'0 0.0
2015-Mar-25 22:32N 01°16' E 103°50'0 0.0
2015-Mar-25 21:32N 01°16' E 103°50'0 0.0
2015-Mar-25 20:32N 01°16' E 103°50'0 0.0
2015-Mar-25 19:32N 01°16' E 103°50'0 0.0
2015-Mar-25 18:32N 01°16' E 103°50'0 0.0
2015-Mar-25 17:32N 01°16' E 103°50'0 0.0
2015-Mar-25 16:32N 01°16' E 103°50'0 0.0
2015-Mar-25 15:32N 01°16' E 103°50'0 0.0
2015-Mar-25 14:32N 01°16' E 103°50'1 0.7
2015-Mar-25 13:33N 01°15' E 103°51'4 3.8
2015-Mar-25 12:31N 01°11' E 103°51'6813.0
2015-Mar-25 07:17N 01°38' E 102°49'2220.8
2015-Mar-25 06:12N 01°48' E 102°28'1421.2
2015-Mar-25 05:33N 01°54' E 102°16'  
Track history (hours):
 
Tides and Currents Weather Stations Pressure Air Temp Water Temp Dewpoint Dewpoint Depression Visibility Wind Speed Wind Dir Waves Ship Positions

Wan Hai 508

Last reported at 2015-Mar-27 01:30 UTC. Time now 2015-Mar-27 19:12 UTC.
Position N 01°57' E 102°18'.

Length 269 m; draft 9.7 m.

Type: Cargo ship. MMSI: 565567000.

Date/timePositionNaut miles runAvg speedWind from/ knotsBaromVisibWave heightAir tempDewpointWater temp
2015-Mar-27 01:30N 01°57' E 102°18'1920.7
2015-Mar-27 00:34N 01°49' E 102°35'2321.2
2015-Mar-26 23:30N 01°39' E 102°56'55 4.6
2015-Mar-26 11:21N 01°17' E 103°46'0 0.0
2015-Mar-26 10:27N 01°17' E 103°46'0 0.0
2015-Mar-26 09:33N 01°17' E 103°46'2 1.9
2015-Mar-26 08:34N 01°17' E 103°44'8 8.4
2015-Mar-26 07:33N 01°13' E 103°52'3 3.1
2015-Mar-26 06:33N 01°16' E 103°50'0 0.0
2015-Mar-26 05:32N 01°16' E 103°50'0 0.0
2015-Mar-26 04:23N 01°16' E 103°50'0 0.0
2015-Mar-26 03:26N 01°16' E 103°50'0 0.0
2015-Mar-26 02:32N 01°16' E 103°50'0 0.0
2015-Mar-26 01:32N 01°16' E 103°50'0 0.0
2015-Mar-26 00:32N 01°16' E 103°50'0 0.0
2015-Mar-25 23:32N 01°16' E 103°50'0 0.0
2015-Mar-25 22:32N 01°16' E 103°50'0 0.0
2015-Mar-25 21:32N 01°16' E 103°50'0 0.0
2015-Mar-25 20:32N 01°16' E 103°50'0 0.0
2015-Mar-25 19:32N 01°16' E 103°50'0 0.0
2015-Mar-25 18:32N 01°16' E 103°50'0 0.0
2015-Mar-25 17:32N 01°16' E 103°50'0 0.0
2015-Mar-25 16:32N 01°16' E 103°50'0 0.0
2015-Mar-25 15:32N 01°16' E 103°50'0 0.0
2015-Mar-25 14:32N 01°16' E 103°50'1 0.7
2015-Mar-25 13:33N 01°15' E 103°51'4 3.8
2015-Mar-25 12:31N 01°11' E 103°51'6813.0
2015-Mar-25 07:17N 01°38' E 102°49'2220.8
2015-Mar-25 06:12N 01°48' E 102°28'1421.2
2015-Mar-25 05:33N 01°54' E 102°16'  

Dump ship's entire track history